Main page
METAR-TAF:

METAR-TAF

Airports :

Lynden Pindling International Airport

Nassau, The Bahamas

latitude: 25-03N, longitude: 077-28W, elevation: 3 m

Current weather observation

The report was made 13 minutes ago, at 00:00 UTC
Wind 11 kt from the South
Temperature 24°C
Humidity 74%
Pressure 1014 hPa
Visibility 10 km or more
Few clouds at a height of 2500 ft
Scattered clouds at a height of 22000 ft

METAR: MYNN 110000Z 17011KT 9999 FEW025 SCT220 24/19 A2993

Time: 20:13 (00:13 UTC)

Forecast

The report was made 2 hours and 43 minutes ago, at 21:30 UTC
Forecast valid from 11 at 00 UTC to 11 at 24 UTC
Wind 15 kt from the South/Southeast
Visibility 10 km or more
Few clouds at a height of 2500 ft
Broken clouds at a height of 22000 ft

TAF: MYNN 102130Z 1100/1124 16015KT 9999 FEW025 BKN220

Weather observations and forecasts of more than 4000 airports (METAR and TAF reports).

The available stations are represented by yellow and red dots on the map.

Hover mouse over dot to see the name of the station.

Then click to see weather observations and forecasts.

To change the map : click on the green buttons with a black cross to zoom in, on the green button with a dash to zoom out, or on the green arrows for adjacent maps.


METAR-TAF: